Airfield :
LOGIN :

Register | Disclaimer

   EN    FR    IT 

 










Legend :    VFR   Marginal VFR   IFR   Intensive IFR   Very Intensive IFR
Visi :
Ceiling :
>= 8 km
>= 3000ft
5 to 8 km
1000 to 3000 ft
1500m to 5 km
500 to 1000 ft
800 to 1500m
200 to 500 ft
< 800m
< 200 ft
Symbols :   Thunderstorms  Fog  Heavy snow  Heavy precipitations  Wind > 20 kt
SIGMETs :     Misc.  Thunderstorms  Icing  Turbulence  Mountain Waves  Volcanic Ashes






- Airport Elevation : 453 ft
- IATA code : SBK


LFRT - St Brieuc Armor

CURRENT METAR :
  • 182330Z AUTO 26005KT CAVOK 17/14 Q1019

EXPIRED METARs :
  • 182300Z AUTO 26005KT CAVOK 17/14 Q1019
  • 182230Z AUTO 26003KT CAVOK 17/14 Q1019
  • 182200Z AUTO 26004KT CAVOK 18/14 Q1019
  • 182130Z AUTO 28004KT CAVOK 18/14 Q1019
  • 182100Z AUTO 31004KT CAVOK 18/14 Q1019
  • 182030Z AUTO 32004KT CAVOK 18/14 Q1019
  • 182000Z AUTO 33003KT CAVOK 19/14 Q1019
  • 181930Z AUTO 35004KT CAVOK 20/14 Q1019
  • 181900Z AUTO 35005KT 320V020 CAVOK 21/14 Q1019

Expired Forecast.



MET'MAP, your aeronautical weather chart ! - Copyright ORBIFLY December 2007 - Disclaimer

ORBIFLY MET'MAP TEAM :

Programming & Development : Alexandra Zaïnal
Original concept : Baudouin d'Aumeries
Technical & hardware support : Manuel Goepfert
Assistance : Marc-Olivier Méhu




SOURCES & CREDITS :

   NOAA